LKJH weather

Jindřichův Hradec Airport
Jindřichův Hradec, South Bohemian Region, Czechia

Public forecast

Using degrees Celsius for public forecast. Weather courtesy of forecast.io.

METAR (pilot weather report)

Closest report is Náměšť Air Base, 45.3 nm (83.9 km) E. Retrieved 2019/08/20 02:00 UTC (23 minutes ago):

LKNA 200200Z 31004KT CAVOK 17/15 Q1021 RMK BLU

TAF (pilot weather forecast)

Closest forecast is Náměšť Air Base, 45.3 nm (83.9 km) E. Retrieved 2019/08/20 00:00 UTC (2 hours ago):

TAF LKNA 192300Z 2000/2100 15008KT CAVOK PROB30 TEMPO 2000/2004 SHRA BKN035 TEMPO 2000/2006 4000 BR SCT005 TEMPO 2015/2022 SHRA BKN030